sensor_id;sensor_type;location;lat;lon;timestamp;P1;durP1;ratioP1;P2;durP2;ratioP2
10880;SDS011;5493;48.884;8.338;2023-07-02T00:00:50;2.60;;;2.40;;
10880;SDS011;5493;48.884;8.338;2023-07-02T00:03:17;6.30;;;2.60;;
10880;SDS011;5493;48.884;8.338;2023-07-02T00:05:46;2.50;;;2.30;;
10880;SDS011;5493;48.884;8.338;2023-07-02T00:08:15;2.73;;;2.33;;
10880;SDS011;5493;48.884;8.338;2023-07-02T00:10:42;3.57;;;2.40;;
10880;SDS011;5493;48.884;8.338;2023-07-02T00:13:09;3.00;;;2.40;;
10880;SDS011;5493;48.884;8.338;2023-07-02T00:15:37;3.93;;;2.50;;
10880;SDS011;5493;48.884;8.338;2023-07-02T00:18:03;2.60;;;2.20;;
10880;SDS011;5493;48.884;8.338;2023-07-02T00:20:30;2.97;;;2.30;;
10880;SDS011;5493;48.884;8.338;2023-07-02T00:22:59;4.57;;;2.40;;
10880;SDS011;5493;48.884;8.338;2023-07-02T00:25:26;3.97;;;2.33;;
10880;SDS011;5493;48.884;8.338;2023-07-02T00:27:53;3.53;;;2.40;;
10880;SDS011;5493;48.884;8.338;2023-07-02T00:30:19;3.10;;;2.40;;
10880;SDS011;5493;48.884;8.338;2023-07-02T00:32:47;2.63;;;2.40;;
10880;SDS011;5493;48.884;8.338;2023-07-02T00:35:14;2.40;;;2.20;;
10880;SDS011;5493;48.884;8.338;2023-07-02T00:37:40;2.60;;;2.40;;
10880;SDS011;5493;48.884;8.338;2023-07-02T00:40:07;3.20;;;2.23;;
10880;SDS011;5493;48.884;8.338;2023-07-02T00:42:34;2.60;;;2.27;;
10880;SDS011;5493;48.884;8.338;2023-07-02T00:45:01;4.13;;;2.37;;
10880;SDS011;5493;48.884;8.338;2023-07-02T00:47:28;3.43;;;2.40;;
10880;SDS011;5493;48.884;8.338;2023-07-02T00:49:57;3.60;;;2.60;;
10880;SDS011;5493;48.884;8.338;2023-07-02T00:52:23;2.67;;;2.40;;
10880;SDS011;5493;48.884;8.338;2023-07-02T00:54:51;2.43;;;2.20;;
10880;SDS011;5493;48.884;8.338;2023-07-02T00:57:17;4.80;;;2.30;;
10880;SDS011;5493;48.884;8.338;2023-07-02T00:59:44;2.90;;;2.10;;
10880;SDS011;5493;48.884;8.338;2023-07-02T01:02:11;3.17;;;2.57;;
10880;SDS011;5493;48.884;8.338;2023-07-02T01:04:38;2.33;;;2.03;;
10880;SDS011;5493;48.884;8.338;2023-07-02T01:07:06;2.53;;;2.10;;
10880;SDS011;5493;48.884;8.338;2023-07-02T01:09:35;3.33;;;1.97;;
10880;SDS011;5493;48.884;8.338;2023-07-02T01:12:03;4.80;;;2.40;;
10880;SDS011;5493;48.884;8.338;2023-07-02T01:14:33;3.07;;;2.10;;
10880;SDS011;5493;48.884;8.338;2023-07-02T01:17:05;3.17;;;2.40;;
10880;SDS011;5493;48.884;8.338;2023-07-02T01:19:39;4.53;;;2.30;;
10880;SDS011;5493;48.884;8.338;2023-07-02T01:22:10;2.50;;;2.20;;
10880;SDS011;5493;48.884;8.338;2023-07-02T01:24:38;2.20;;;2.00;;
10880;SDS011;5493;48.884;8.338;2023-07-02T01:27:05;3.70;;;2.30;;
10880;SDS011;5493;48.884;8.338;2023-07-02T01:29:32;2.43;;;2.23;;
10880;SDS011;5493;48.884;8.338;2023-07-02T01:32:01;3.67;;;2.30;;
10880;SDS011;5493;48.884;8.338;2023-07-02T01:34:28;2.43;;;2.10;;
10880;SDS011;5493;48.884;8.338;2023-07-02T01:36:56;2.87;;;2.30;;
10880;SDS011;5493;48.884;8.338;2023-07-02T01:39:23;2.33;;;2.10;;
10880;SDS011;5493;48.884;8.338;2023-07-02T01:41:50;3.13;;;2.37;;
10880;SDS011;5493;48.884;8.338;2023-07-02T01:44:18;3.40;;;2.50;;
10880;SDS011;5493;48.884;8.338;2023-07-02T01:46:44;2.43;;;2.20;;
10880;SDS011;5493;48.884;8.338;2023-07-02T01:49:13;3.00;;;2.20;;
10880;SDS011;5493;48.884;8.338;2023-07-02T01:51:40;3.33;;;2.37;;
10880;SDS011;5493;48.884;8.338;2023-07-02T01:54:11;5.43;;;2.23;;
10880;SDS011;5493;48.884;8.338;2023-07-02T01:56:38;5.13;;;2.30;;
10880;SDS011;5493;48.884;8.338;2023-07-02T01:59:04;4.20;;;1.90;;
10880;SDS011;5493;48.884;8.338;2023-07-02T02:01:31;3.53;;;2.40;;
10880;SDS011;5493;48.884;8.338;2023-07-02T02:03:58;3.43;;;2.60;;
10880;SDS011;5493;48.884;8.338;2023-07-02T02:06:25;3.80;;;2.60;;
10880;SDS011;5493;48.884;8.338;2023-07-02T02:08:51;6.07;;;2.47;;
10880;SDS011;5493;48.884;8.338;2023-07-02T02:11:19;5.47;;;2.00;;
10880;SDS011;5493;48.884;8.338;2023-07-02T02:13:45;3.83;;;2.60;;
10880;SDS011;5493;48.884;8.338;2023-07-02T02:16:13;7.07;;;2.67;;
10880;SDS011;5493;48.884;8.338;2023-07-02T02:18:40;3.80;;;2.50;;
10880;SDS011;5493;48.884;8.338;2023-07-02T02:21:07;4.10;;;2.80;;
10880;SDS011;5493;48.884;8.338;2023-07-02T02:23:33;5.13;;;2.50;;
10880;SDS011;5493;48.884;8.338;2023-07-02T02:26:00;4.13;;;2.40;;
10880;SDS011;5493;48.884;8.338;2023-07-02T02:28:28;2.93;;;2.10;;
10880;SDS011;5493;48.884;8.338;2023-07-02T02:30:54;3.10;;;2.60;;
10880;SDS011;5493;48.884;8.338;2023-07-02T02:33:21;4.17;;;2.67;;
10880;SDS011;5493;48.884;8.338;2023-07-02T02:35:48;3.30;;;2.30;;
10880;SDS011;5493;48.884;8.338;2023-07-02T02:38:14;4.80;;;2.30;;
10880;SDS011;5493;48.884;8.338;2023-07-02T02:40:41;6.33;;;2.40;;
10880;SDS011;5493;48.884;8.338;2023-07-02T02:43:08;3.00;;;2.30;;
10880;SDS011;5493;48.884;8.338;2023-07-02T02:45:36;4.20;;;2.37;;
10880;SDS011;5493;48.884;8.338;2023-07-02T02:48:02;3.43;;;2.20;;
10880;SDS011;5493;48.884;8.338;2023-07-02T02:50:29;8.10;;;2.80;;
10880;SDS011;5493;48.884;8.338;2023-07-02T02:52:56;3.93;;;2.60;;
10880;SDS011;5493;48.884;8.338;2023-07-02T02:55:22;4.30;;;2.30;;
10880;SDS011;5493;48.884;8.338;2023-07-02T02:57:49;3.90;;;2.30;;
10880;SDS011;5493;48.884;8.338;2023-07-02T03:00:15;3.63;;;2.90;;
10880;SDS011;5493;48.884;8.338;2023-07-02T03:02:44;4.63;;;2.70;;
10880;SDS011;5493;48.884;8.338;2023-07-02T03:05:10;5.57;;;2.23;;
10880;SDS011;5493;48.884;8.338;2023-07-02T03:07:37;4.60;;;2.53;;
10880;SDS011;5493;48.884;8.338;2023-07-02T03:10:05;4.07;;;2.40;;
10880;SDS011;5493;48.884;8.338;2023-07-02T03:12:32;3.77;;;2.33;;
10880;SDS011;5493;48.884;8.338;2023-07-02T03:14:58;3.77;;;2.57;;
10880;SDS011;5493;48.884;8.338;2023-07-02T03:17:25;3.03;;;2.50;;
10880;SDS011;5493;48.884;8.338;2023-07-02T03:19:53;6.33;;;2.70;;
10880;SDS011;5493;48.884;8.338;2023-07-02T03:22:19;5.10;;;2.90;;
10880;SDS011;5493;48.884;8.338;2023-07-02T03:24:46;4.87;;;2.67;;
10880;SDS011;5493;48.884;8.338;2023-07-02T03:27:12;3.43;;;2.40;;
10880;SDS011;5493;48.884;8.338;2023-07-02T03:29:39;5.47;;;2.57;;
10880;SDS011;5493;48.884;8.338;2023-07-02T03:32:06;9.97;;;2.60;;
10880;SDS011;5493;48.884;8.338;2023-07-02T03:34:33;5.17;;;2.90;;
10880;SDS011;5493;48.884;8.338;2023-07-02T03:37:01;4.10;;;2.43;;
10880;SDS011;5493;48.884;8.338;2023-07-02T03:39:27;5.10;;;2.83;;
10880;SDS011;5493;48.884;8.338;2023-07-02T03:41:54;4.87;;;2.60;;
10880;SDS011;5493;48.884;8.338;2023-07-02T03:44:20;5.07;;;2.83;;
10880;SDS011;5493;48.884;8.338;2023-07-02T03:46:47;4.30;;;2.80;;
10880;SDS011;5493;48.884;8.338;2023-07-02T03:49:13;7.70;;;2.80;;
10880;SDS011;5493;48.884;8.338;2023-07-02T03:51:40;4.33;;;2.27;;
10880;SDS011;5493;48.884;8.338;2023-07-02T03:54:08;4.53;;;2.80;;
10880;SDS011;5493;48.884;8.338;2023-07-02T03:56:34;4.50;;;2.80;;
10880;SDS011;5493;48.884;8.338;2023-07-02T03:59:01;6.77;;;3.03;;
10880;SDS011;5493;48.884;8.338;2023-07-02T04:01:27;7.53;;;3.13;;
10880;SDS011;5493;48.884;8.338;2023-07-02T04:03:55;5.30;;;2.80;;
10880;SDS011;5493;48.884;8.338;2023-07-02T04:06:22;5.07;;;2.93;;
10880;SDS011;5493;48.884;8.338;2023-07-02T04:08:49;6.27;;;3.07;;
10880;SDS011;5493;48.884;8.338;2023-07-02T04:11:16;4.33;;;2.80;;
10880;SDS011;5493;48.884;8.338;2023-07-02T04:13:43;6.20;;;2.77;;
10880;SDS011;5493;48.884;8.338;2023-07-02T04:16:09;7.57;;;3.87;;
10880;SDS011;5493;48.884;8.338;2023-07-02T04:18:36;7.50;;;2.90;;
10880;SDS011;5493;48.884;8.338;2023-07-02T04:21:03;4.97;;;2.83;;
10880;SDS011;5493;48.884;8.338;2023-07-02T04:23:29;6.43;;;2.87;;
10880;SDS011;5493;48.884;8.338;2023-07-02T04:25:56;5.90;;;3.20;;
10880;SDS011;5493;48.884;8.338;2023-07-02T04:28:23;4.07;;;2.83;;
10880;SDS011;5493;48.884;8.338;2023-07-02T04:30:51;5.77;;;2.93;;
10880;SDS011;5493;48.884;8.338;2023-07-02T04:33:18;7.53;;;2.50;;
10880;SDS011;5493;48.884;8.338;2023-07-02T04:35:45;5.30;;;2.63;;
10880;SDS011;5493;48.884;8.338;2023-07-02T04:38:11;4.83;;;2.37;;
10880;SDS011;5493;48.884;8.338;2023-07-02T04:40:38;3.37;;;2.43;;
10880;SDS011;5493;48.884;8.338;2023-07-02T04:43:06;4.53;;;2.73;;
10880;SDS011;5493;48.884;8.338;2023-07-02T04:45:34;5.00;;;3.10;;
10880;SDS011;5493;48.884;8.338;2023-07-02T04:48:01;3.50;;;2.20;;
10880;SDS011;5493;48.884;8.338;2023-07-02T04:50:28;3.80;;;2.43;;
10880;SDS011;5493;48.884;8.338;2023-07-02T04:52:54;5.20;;;2.93;;
10880;SDS011;5493;48.884;8.338;2023-07-02T04:55:21;4.90;;;2.60;;
10880;SDS011;5493;48.884;8.338;2023-07-02T04:57:48;5.20;;;2.93;;
10880;SDS011;5493;48.884;8.338;2023-07-02T05:00:14;4.20;;;2.53;;
10880;SDS011;5493;48.884;8.338;2023-07-02T05:02:43;6.43;;;2.60;;
10880;SDS011;5493;48.884;8.338;2023-07-02T05:05:09;8.67;;;3.20;;
10880;SDS011;5493;48.884;8.338;2023-07-02T05:07:36;4.33;;;2.40;;
10880;SDS011;5493;48.884;8.338;2023-07-02T05:10:03;7.17;;;2.87;;
10880;SDS011;5493;48.884;8.338;2023-07-02T05:12:30;4.43;;;2.37;;
10880;SDS011;5493;48.884;8.338;2023-07-02T05:14:56;7.30;;;2.90;;
10880;SDS011;5493;48.884;8.338;2023-07-02T05:17:23;4.30;;;2.90;;
10880;SDS011;5493;48.884;8.338;2023-07-02T05:19:51;7.63;;;3.10;;
10880;SDS011;5493;48.884;8.338;2023-07-02T05:22:18;5.33;;;2.90;;
10880;SDS011;5493;48.884;8.338;2023-07-02T05:24:44;5.23;;;2.80;;
10880;SDS011;5493;48.884;8.338;2023-07-02T05:27:11;4.30;;;2.57;;
10880;SDS011;5493;48.884;8.338;2023-07-02T05:29:38;7.47;;;3.00;;
10880;SDS011;5493;48.884;8.338;2023-07-02T05:32:04;7.33;;;2.53;;
10880;SDS011;5493;48.884;8.338;2023-07-02T05:34:31;7.13;;;2.93;;
10880;SDS011;5493;48.884;8.338;2023-07-02T05:36:59;5.33;;;3.00;;
10880;SDS011;5493;48.884;8.338;2023-07-02T05:39:26;5.00;;;2.80;;
10880;SDS011;5493;48.884;8.338;2023-07-02T05:41:53;4.70;;;2.93;;
10880;SDS011;5493;48.884;8.338;2023-07-02T05:44:19;3.97;;;2.70;;
10880;SDS011;5493;48.884;8.338;2023-07-02T05:46:46;8.27;;;2.70;;
10880;SDS011;5493;48.884;8.338;2023-07-02T05:49:12;4.73;;;2.70;;
10880;SDS011;5493;48.884;8.338;2023-07-02T05:51:39;7.30;;;2.90;;
10880;SDS011;5493;48.884;8.338;2023-07-02T05:54:07;4.53;;;2.70;;
10880;SDS011;5493;48.884;8.338;2023-07-02T05:56:33;6.87;;;2.90;;
10880;SDS011;5493;48.884;8.338;2023-07-02T05:59:00;8.60;;;3.40;;
10880;SDS011;5493;48.884;8.338;2023-07-02T06:01:26;6.27;;;3.50;;
10880;SDS011;5493;48.884;8.338;2023-07-02T06:03:53;7.97;;;3.60;;
10880;SDS011;5493;48.884;8.338;2023-07-02T06:06:20;7.20;;;4.20;;
10880;SDS011;5493;48.884;8.338;2023-07-02T06:08:49;6.33;;;3.40;;
10880;SDS011;5493;48.884;8.338;2023-07-02T06:11:17;8.32;;;4.10;;
10880;SDS011;5493;48.884;8.338;2023-07-02T06:13:44;9.70;;;4.68;;
10880;SDS011;5493;48.884;8.338;2023-07-02T06:16:10;7.32;;;4.60;;
10880;SDS011;5493;48.884;8.338;2023-07-02T06:18:37;11.15;;;5.15;;
10880;SDS011;5493;48.884;8.338;2023-07-02T06:21:03;10.30;;;4.70;;
10880;SDS011;5493;48.884;8.338;2023-07-02T06:23:38;8.32;;;4.70;;
10880;SDS011;5493;48.884;8.338;2023-07-02T06:26:06;8.38;;;5.15;;
10880;SDS011;5493;48.884;8.338;2023-07-02T06:28:34;10.15;;;4.85;;
10880;SDS011;5493;48.884;8.338;2023-07-02T06:31:00;10.18;;;5.10;;
10880;SDS011;5493;48.884;8.338;2023-07-02T06:33:27;10.45;;;5.93;;
10880;SDS011;5493;48.884;8.338;2023-07-02T06:35:53;8.73;;;4.60;;
10880;SDS011;5493;48.884;8.338;2023-07-02T06:38:20;9.50;;;5.70;;
10880;SDS011;5493;48.884;8.338;2023-07-02T06:40:46;7.32;;;4.95;;
10880;SDS011;5493;48.884;8.338;2023-07-02T06:43:13;8.00;;;5.07;;
10880;SDS011;5493;48.884;8.338;2023-07-02T06:45:41;12.13;;;6.20;;
10880;SDS011;5493;48.884;8.338;2023-07-02T06:48:07;10.90;;;5.93;;
10880;SDS011;5493;48.884;8.338;2023-07-02T06:50:35;11.00;;;6.53;;
10880;SDS011;5493;48.884;8.338;2023-07-02T06:53:01;11.25;;;6.78;;
10880;SDS011;5493;48.884;8.338;2023-07-02T06:55:28;13.27;;;6.50;;
10880;SDS011;5493;48.884;8.338;2023-07-02T06:57:55;10.95;;;7.00;;
10880;SDS011;5493;48.884;8.338;2023-07-02T07:00:21;10.95;;;6.47;;
10880;SDS011;5493;48.884;8.338;2023-07-02T07:02:49;10.23;;;6.22;;
10880;SDS011;5493;48.884;8.338;2023-07-02T07:05:16;10.32;;;7.03;;
10880;SDS011;5493;48.884;8.338;2023-07-02T07:07:42;11.25;;;6.57;;
10880;SDS011;5493;48.884;8.338;2023-07-02T07:10:09;9.50;;;6.47;;
10880;SDS011;5493;48.884;8.338;2023-07-02T07:12:35;10.18;;;6.45;;
10880;SDS011;5493;48.884;8.338;2023-07-02T07:15:03;9.50;;;6.45;;
10880;SDS011;5493;48.884;8.338;2023-07-02T07:17:30;12.10;;;6.47;;
10880;SDS011;5493;48.884;8.338;2023-07-02T07:19:57;9.50;;;6.30;;
10880;SDS011;5493;48.884;8.338;2023-07-02T07:22:24;11.45;;;7.13;;
10880;SDS011;5493;48.884;8.338;2023-07-02T07:24:50;9.85;;;6.93;;
10880;SDS011;5493;48.884;8.338;2023-07-02T07:27:17;9.50;;;7.15;;
10880;SDS011;5493;48.884;8.338;2023-07-02T07:29:43;11.25;;;7.45;;
10880;SDS011;5493;48.884;8.338;2023-07-02T07:32:10;12.93;;;7.55;;
10880;SDS011;5493;48.884;8.338;2023-07-02T07:34:36;11.88;;;7.30;;
10880;SDS011;5493;48.884;8.338;2023-07-02T07:37:05;9.43;;;6.88;;
10880;SDS011;5493;48.884;8.338;2023-07-02T07:39:31;11.80;;;7.78;;
10880;SDS011;5493;48.884;8.338;2023-07-02T07:41:58;10.35;;;7.53;;
10880;SDS011;5493;48.884;8.338;2023-07-02T07:44:24;10.27;;;7.63;;
10880;SDS011;5493;48.884;8.338;2023-07-02T07:46:53;10.15;;;7.93;;
10880;SDS011;5493;48.884;8.338;2023-07-02T07:49:20;12.38;;;7.75;;
10880;SDS011;5493;48.884;8.338;2023-07-02T07:51:47;9.40;;;6.53;;
10880;SDS011;5493;48.884;8.338;2023-07-02T07:54:15;13.82;;;8.52;;
10880;SDS011;5493;48.884;8.338;2023-07-02T07:56:41;13.00;;;8.73;;
10880;SDS011;5493;48.884;8.338;2023-07-02T07:59:08;12.52;;;9.00;;
10880;SDS011;5493;48.884;8.338;2023-07-02T08:01:36;12.02;;;9.07;;
10880;SDS011;5493;48.884;8.338;2023-07-02T08:04:02;14.85;;;10.05;;
10880;SDS011;5493;48.884;8.338;2023-07-02T08:06:29;12.77;;;9.70;;
10880;SDS011;5493;48.884;8.338;2023-07-02T08:08:56;16.35;;;10.80;;
10880;SDS011;5493;48.884;8.338;2023-07-02T08:11:24;16.35;;;11.55;;
10880;SDS011;5493;48.884;8.338;2023-07-02T08:13:51;15.77;;;10.45;;
10880;SDS011;5493;48.884;8.338;2023-07-02T08:16:17;17.33;;;11.00;;
10880;SDS011;5493;48.884;8.338;2023-07-02T08:18:44;17.40;;;11.02;;
10880;SDS011;5493;48.884;8.338;2023-07-02T08:21:10;15.25;;;10.55;;
10880;SDS011;5493;48.884;8.338;2023-07-02T08:23:37;15.75;;;11.45;;
10880;SDS011;5493;48.884;8.338;2023-07-02T08:26:03;17.70;;;10.90;;
10880;SDS011;5493;48.884;8.338;2023-07-02T08:28:31;17.05;;;11.07;;
10880;SDS011;5493;48.884;8.338;2023-07-02T08:30:58;15.27;;;10.77;;
10880;SDS011;5493;48.884;8.338;2023-07-02T08:33:24;16.50;;;10.27;;
10880;SDS011;5493;48.884;8.338;2023-07-02T08:35:51;15.50;;;10.10;;
10880;SDS011;5493;48.884;8.338;2023-07-02T08:38:17;14.73;;;10.52;;
10880;SDS011;5493;48.884;8.338;2023-07-02T08:40:44;13.95;;;10.45;;
10880;SDS011;5493;48.884;8.338;2023-07-02T08:43:10;18.50;;;9.80;;
10880;SDS011;5493;48.884;8.338;2023-07-02T08:45:39;13.73;;;9.75;;
10880;SDS011;5493;48.884;8.338;2023-07-02T08:48:06;14.85;;;10.23;;
10880;SDS011;5493;48.884;8.338;2023-07-02T08:50:33;15.10;;;9.93;;
10880;SDS011;5493;48.884;8.338;2023-07-02T08:53:00;13.88;;;9.65;;
10880;SDS011;5493;48.884;8.338;2023-07-02T08:55:27;13.48;;;9.43;;
10880;SDS011;5493;48.884;8.338;2023-07-02T08:57:55;13.23;;;9.40;;
10880;SDS011;5493;48.884;8.338;2023-07-02T09:00:24;13.82;;;9.55;;
10880;SDS011;5493;48.884;8.338;2023-07-02T09:02:52;17.00;;;10.25;;
10880;SDS011;5493;48.884;8.338;2023-07-02T09:05:19;13.60;;;9.52;;
10880;SDS011;5493;48.884;8.338;2023-07-02T09:07:45;13.55;;;9.40;;
10880;SDS011;5493;48.884;8.338;2023-07-02T09:10:24;13.10;;;9.52;;
10880;SDS011;5493;48.884;8.338;2023-07-02T09:13:01;15.48;;;9.15;;
10880;SDS011;5493;48.884;8.338;2023-07-02T09:15:34;13.38;;;9.52;;
10880;SDS011;5493;48.884;8.338;2023-07-02T09:18:13;14.85;;;9.93;;
10880;SDS011;5493;48.884;8.338;2023-07-02T09:20:41;13.57;;;9.40;;
10880;SDS011;5493;48.884;8.338;2023-07-02T09:23:07;12.00;;;9.07;;
10880;SDS011;5493;48.884;8.338;2023-07-02T09:25:37;13.30;;;9.90;;
10880;SDS011;5493;48.884;8.338;2023-07-02T09:28:13;13.75;;;9.40;;
10880;SDS011;5493;48.884;8.338;2023-07-02T09:30:48;16.25;;;10.00;;
10880;SDS011;5493;48.884;8.338;2023-07-02T09:33:17;13.98;;;9.85;;
10880;SDS011;5493;48.884;8.338;2023-07-02T09:35:43;13.52;;;9.30;;
10880;SDS011;5493;48.884;8.338;2023-07-02T09:38:10;14.55;;;10.07;;
10880;SDS011;5493;48.884;8.338;2023-07-02T09:40:37;13.32;;;9.35;;
10880;SDS011;5493;48.884;8.338;2023-07-02T09:43:11;15.18;;;9.82;;
10880;SDS011;5493;48.884;8.338;2023-07-02T09:45:38;13.95;;;9.68;;
10880;SDS011;5493;48.884;8.338;2023-07-02T09:48:09;14.48;;;9.40;;
10880;SDS011;5493;48.884;8.338;2023-07-02T09:50:40;14.10;;;9.68;;
10880;SDS011;5493;48.884;8.338;2023-07-02T09:53:06;12.40;;;9.25;;
10880;SDS011;5493;48.884;8.338;2023-07-02T09:55:33;12.55;;;9.50;;
10880;SDS011;5493;48.884;8.338;2023-07-02T09:58:00;16.13;;;10.30;;
10880;SDS011;5493;48.884;8.338;2023-07-02T10:00:26;14.00;;;9.88;;
10880;SDS011;5493;48.884;8.338;2023-07-02T10:02:53;15.93;;;9.93;;
10880;SDS011;5493;48.884;8.338;2023-07-02T10:05:25;16.52;;;10.00;;
10880;SDS011;5493;48.884;8.338;2023-07-02T10:07:53;25.83;;;23.02;;
10880;SDS011;5493;48.884;8.338;2023-07-02T10:10:27;49.33;;;44.10;;
10880;SDS011;5493;48.884;8.338;2023-07-02T10:12:54;15.05;;;11.45;;
10880;SDS011;5493;48.884;8.338;2023-07-02T10:15:24;14.23;;;9.98;;
10880;SDS011;5493;48.884;8.338;2023-07-02T10:17:55;14.93;;;11.43;;
10880;SDS011;5493;48.884;8.338;2023-07-02T10:20:30;14.07;;;9.63;;
10880;SDS011;5493;48.884;8.338;2023-07-02T10:23:00;16.00;;;10.02;;
10880;SDS011;5493;48.884;8.338;2023-07-02T10:25:28;15.07;;;11.00;;
10880;SDS011;5493;48.884;8.338;2023-07-02T10:27:55;15.50;;;9.75;;
10880;SDS011;5493;48.884;8.338;2023-07-02T10:30:30;13.90;;;9.88;;
10880;SDS011;5493;48.884;8.338;2023-07-02T10:33:06;13.60;;;8.95;;
10880;SDS011;5493;48.884;8.338;2023-07-02T10:35:34;15.77;;;9.98;;
10880;SDS011;5493;48.884;8.338;2023-07-02T10:38:02;12.40;;;8.85;;
10880;SDS011;5493;48.884;8.338;2023-07-02T10:40:29;10.88;;;8.13;;
10880;SDS011;5493;48.884;8.338;2023-07-02T10:42:58;13.25;;;9.95;;
10880;SDS011;5493;48.884;8.338;2023-07-02T10:45:30;14.73;;;9.85;;
10880;SDS011;5493;48.884;8.338;2023-07-02T10:47:58;13.43;;;9.95;;
10880;SDS011;5493;48.884;8.338;2023-07-02T10:50:24;14.90;;;9.63;;
10880;SDS011;5493;48.884;8.338;2023-07-02T10:52:53;14.90;;;9.35;;
10880;SDS011;5493;48.884;8.338;2023-07-02T10:55:22;12.82;;;9.73;;
10880;SDS011;5493;48.884;8.338;2023-07-02T10:57:49;13.35;;;9.15;;
10880;SDS011;5493;48.884;8.338;2023-07-02T11:00:27;15.70;;;10.13;;
10880;SDS011;5493;48.884;8.338;2023-07-02T11:02:55;13.25;;;9.55;;
10880;SDS011;5493;48.884;8.338;2023-07-02T11:05:22;14.15;;;9.57;;
10880;SDS011;5493;48.884;8.338;2023-07-02T11:07:48;14.02;;;9.70;;
10880;SDS011;5493;48.884;8.338;2023-07-02T11:10:23;14.15;;;9.57;;
10880;SDS011;5493;48.884;8.338;2023-07-02T11:12:50;12.98;;;9.48;;
10880;SDS011;5493;48.884;8.338;2023-07-02T11:15:17;14.25;;;9.70;;
10880;SDS011;5493;48.884;8.338;2023-07-02T11:17:44;14.25;;;10.20;;
10880;SDS011;5493;48.884;8.338;2023-07-02T11:20:11;15.70;;;10.30;;
10880;SDS011;5493;48.884;8.338;2023-07-02T11:22:39;16.77;;;10.05;;
10880;SDS011;5493;48.884;8.338;2023-07-02T11:25:10;16.70;;;9.57;;
10880;SDS011;5493;48.884;8.338;2023-07-02T11:27:39;17.35;;;9.75;;
10880;SDS011;5493;48.884;8.338;2023-07-02T11:30:06;13.60;;;9.25;;
10880;SDS011;5493;48.884;8.338;2023-07-02T11:32:35;15.90;;;10.02;;
10880;SDS011;5493;48.884;8.338;2023-07-02T11:35:13;13.65;;;9.50;;
10880;SDS011;5493;48.884;8.338;2023-07-02T11:37:40;14.30;;;8.93;;
10880;SDS011;5493;48.884;8.338;2023-07-02T11:40:07;14.05;;;9.07;;
10880;SDS011;5493;48.884;8.338;2023-07-02T11:42:34;11.98;;;8.38;;
10880;SDS011;5493;48.884;8.338;2023-07-02T11:45:02;12.30;;;8.20;;
10880;SDS011;5493;48.884;8.338;2023-07-02T11:47:29;12.45;;;8.48;;
10880;SDS011;5493;48.884;8.338;2023-07-02T11:49:56;16.60;;;9.45;;
10880;SDS011;5493;48.884;8.338;2023-07-02T11:52:24;13.18;;;8.02;;
10880;SDS011;5493;48.884;8.338;2023-07-02T11:54:50;12.85;;;8.85;;
10880;SDS011;5493;48.884;8.338;2023-07-02T11:57:17;12.80;;;8.82;;
10880;SDS011;5493;48.884;8.338;2023-07-02T11:59:43;12.43;;;8.10;;
10880;SDS011;5493;48.884;8.338;2023-07-02T12:02:11;13.25;;;8.95;;
10880;SDS011;5493;48.884;8.338;2023-07-02T12:04:38;13.13;;;8.00;;
10880;SDS011;5493;48.884;8.338;2023-07-02T12:07:05;14.65;;;8.52;;
10880;SDS011;5493;48.884;8.338;2023-07-02T12:09:31;14.35;;;8.30;;
10880;SDS011;5493;48.884;8.338;2023-07-02T12:11:58;10.77;;;8.13;;
10880;SDS011;5493;48.884;8.338;2023-07-02T12:14:24;12.48;;;7.82;;
10880;SDS011;5493;48.884;8.338;2023-07-02T12:16:51;11.30;;;7.70;;
10880;SDS011;5493;48.884;8.338;2023-07-02T12:19:19;9.27;;;6.45;;
10880;SDS011;5493;48.884;8.338;2023-07-02T12:21:45;13.90;;;8.05;;
10880;SDS011;5493;48.884;8.338;2023-07-02T12:24:12;12.68;;;8.90;;
10880;SDS011;5493;48.884;8.338;2023-07-02T12:26:39;12.88;;;8.40;;
10880;SDS011;5493;48.884;8.338;2023-07-02T12:29:06;11.00;;;7.80;;
10880;SDS011;5493;48.884;8.338;2023-07-02T12:31:32;11.15;;;8.40;;
10880;SDS011;5493;48.884;8.338;2023-07-02T12:33:59;11.55;;;8.15;;
10880;SDS011;5493;48.884;8.338;2023-07-02T12:36:27;13.98;;;8.20;;
10880;SDS011;5493;48.884;8.338;2023-07-02T12:38:53;11.88;;;7.88;;
10880;SDS011;5493;48.884;8.338;2023-07-02T12:41:20;13.85;;;9.07;;
10880;SDS011;5493;48.884;8.338;2023-07-02T12:43:46;11.90;;;8.10;;
10880;SDS011;5493;48.884;8.338;2023-07-02T12:46:13;10.45;;;8.35;;
10880;SDS011;5493;48.884;8.338;2023-07-02T12:48:40;12.65;;;7.88;;
10880;SDS011;5493;48.884;8.338;2023-07-02T12:51:06;10.23;;;7.53;;
10880;SDS011;5493;48.884;8.338;2023-07-02T12:53:34;10.95;;;8.00;;
10880;SDS011;5493;48.884;8.338;2023-07-02T12:56:01;11.48;;;8.70;;
10880;SDS011;5493;48.884;8.338;2023-07-02T12:58:27;12.48;;;7.70;;
10880;SDS011;5493;48.884;8.338;2023-07-02T13:00:54;11.93;;;7.70;;
10880;SDS011;5493;48.884;8.338;2023-07-02T13:03:21;12.23;;;8.40;;
10880;SDS011;5493;48.884;8.338;2023-07-02T13:05:48;12.30;;;7.88;;
10880;SDS011;5493;48.884;8.338;2023-07-02T13:08:14;14.43;;;7.82;;
10880;SDS011;5493;48.884;8.338;2023-07-02T13:10:43;11.43;;;7.93;;
10880;SDS011;5493;48.884;8.338;2023-07-02T13:13:10;11.18;;;7.80;;
10880;SDS011;5493;48.884;8.338;2023-07-02T13:15:36;11.55;;;7.47;;
10880;SDS011;5493;48.884;8.338;2023-07-02T13:18:03;11.63;;;8.07;;
10880;SDS011;5493;48.884;8.338;2023-07-02T13:20:30;12.23;;;7.85;;
10880;SDS011;5493;48.884;8.338;2023-07-02T13:22:56;10.63;;;7.78;;
10880;SDS011;5493;48.884;8.338;2023-07-02T13:25:24;12.85;;;8.27;;
10880;SDS011;5493;48.884;8.338;2023-07-02T13:27:51;11.50;;;8.18;;
10880;SDS011;5493;48.884;8.338;2023-07-02T13:30:18;9.18;;;6.53;;
10880;SDS011;5493;48.884;8.338;2023-07-02T13:32:45;12.63;;;7.88;;
10880;SDS011;5493;48.884;8.338;2023-07-02T13:35:12;13.68;;;8.07;;
10880;SDS011;5493;48.884;8.338;2023-07-02T13:37:38;10.85;;;7.78;;
10880;SDS011;5493;48.884;8.338;2023-07-02T13:40:05;10.52;;;7.32;;
10880;SDS011;5493;48.884;8.338;2023-07-02T13:42:35;11.68;;;8.00;;
10880;SDS011;5493;48.884;8.338;2023-07-02T13:45:03;12.70;;;7.93;;
10880;SDS011;5493;48.884;8.338;2023-07-02T13:47:30;11.32;;;7.85;;
10880;SDS011;5493;48.884;8.338;2023-07-02T13:49:56;11.13;;;7.13;;
10880;SDS011;5493;48.884;8.338;2023-07-02T13:52:23;10.48;;;7.78;;
10880;SDS011;5493;48.884;8.338;2023-07-02T13:54:49;10.40;;;7.15;;
10880;SDS011;5493;48.884;8.338;2023-07-02T13:57:16;11.02;;;7.47;;
10880;SDS011;5493;48.884;8.338;2023-07-02T13:59:44;11.50;;;7.78;;
10880;SDS011;5493;48.884;8.338;2023-07-02T14:02:10;9.68;;;6.97;;
10880;SDS011;5493;48.884;8.338;2023-07-02T14:04:37;14.18;;;7.47;;
10880;SDS011;5493;48.884;8.338;2023-07-02T14:07:04;13.73;;;8.30;;
10880;SDS011;5493;48.884;8.338;2023-07-02T14:09:31;9.85;;;7.10;;
10880;SDS011;5493;48.884;8.338;2023-07-02T14:11:58;8.60;;;6.18;;
10880;SDS011;5493;48.884;8.338;2023-07-02T14:14:24;13.13;;;7.70;;
10880;SDS011;5493;48.884;8.338;2023-07-02T14:16:52;10.73;;;7.75;;
10880;SDS011;5493;48.884;8.338;2023-07-02T14:19:19;10.80;;;7.18;;
10880;SDS011;5493;48.884;8.338;2023-07-02T14:21:45;11.52;;;7.40;;
10880;SDS011;5493;48.884;8.338;2023-07-02T14:24:12;10.57;;;7.55;;
10880;SDS011;5493;48.884;8.338;2023-07-02T14:26:38;10.48;;;7.63;;
10880;SDS011;5493;48.884;8.338;2023-07-02T14:29:05;10.88;;;7.43;;
10880;SDS011;5493;48.884;8.338;2023-07-02T14:31:32;14.73;;;7.72;;
10880;SDS011;5493;48.884;8.338;2023-07-02T14:33:59;10.95;;;7.45;;
10880;SDS011;5493;48.884;8.338;2023-07-02T14:36:26;11.85;;;8.10;;
10880;SDS011;5493;48.884;8.338;2023-07-02T14:38:52;9.93;;;7.10;;
10880;SDS011;5493;48.884;8.338;2023-07-02T14:41:19;9.18;;;7.65;;
10880;SDS011;5493;48.884;8.338;2023-07-02T14:43:45;10.82;;;7.95;;
10880;SDS011;5493;48.884;8.338;2023-07-02T14:46:12;13.07;;;7.95;;
10880;SDS011;5493;48.884;8.338;2023-07-02T14:48:39;12.32;;;8.48;;
10880;SDS011;5493;48.884;8.338;2023-07-02T14:51:07;10.50;;;7.75;;
10880;SDS011;5493;48.884;8.338;2023-07-02T14:53:34;11.55;;;7.85;;